Time;durP1;ratioP1;P1;durP2;ratioP2;P2;SDS_P1;SDS_P2;PMS_P1;PMS_P2;Temp;Humidity;BMP_temperature;BMP_pressure;BME280_temperature;BME280_humidity;BME280_pressure;Samples;Min_cycle;Max_cycle;Signal;HPM_P1;HPM_P2
2022/08/06 00:01:02;;;;;;;4.00;1.30;;;16.20;99.90;;;;;;5112894;28;20173;-50
2022/08/06 00:03:27;;;;;;;2.83;1.50;;;16.10;99.90;;;;;;5112856;28;20199;-45
2022/08/06 00:05:53;;;;;;;2.28;2.08;;;16.10;99.90;;;;;;5112900;27;20270;-43
2022/08/06 00:08:19;;;;;;;3.15;1.48;;;16.10;99.90;;;;;;5113085;28;20157;-41
2022/08/06 00:10:45;;;;;;;1.75;1.35;;;16.10;99.90;;;;;;5111803;28;20169;-42
2022/08/06 00:13:11;;;;;;;2.50;1.30;;;16.20;99.90;;;;;;5112623;28;20219;-43
2022/08/06 00:15:36;;;;;;;2.65;1.27;;;16.20;99.90;;;;;;5112686;28;20192;-42
2022/08/06 00:18:02;;;;;;;2.28;1.35;;;16.10;99.90;;;;;;5112800;28;20164;-42
2022/08/06 00:20:28;;;;;;;2.50;1.40;;;16.10;99.90;;;;;;5112544;28;20175;-43
2022/08/06 00:22:53;;;;;;;4.45;1.67;;;16.10;99.90;;;;;;5112616;28;20161;-43
2022/08/06 00:25:19;;;;;;;3.92;1.50;;;16.10;99.90;;;;;;5113078;28;20208;-42
2022/08/06 00:27:45;;;;;;;3.08;1.52;;;16.20;99.90;;;;;;5112418;28;20712;-43
2022/08/06 00:30:10;;;;;;;3.38;1.45;;;16.20;99.90;;;;;;5112458;28;20187;-43
2022/08/06 00:32:36;;;;;;;3.35;1.40;;;16.10;99.90;;;;;;5112723;28;20248;-42
2022/08/06 00:35:03;;;;;;;3.03;1.45;;;16.10;99.90;;;;;;5112474;28;20164;-44
2022/08/06 00:37:28;;;;;;;2.78;1.10;;;16.10;99.90;;;;;;5112373;28;20172;-44
2022/08/06 00:39:55;;;;;;;5.38;1.48;;;16.10;99.90;;;;;;5112358;28;20214;-43
2022/08/06 00:42:21;;;;;;;1.58;1.20;;;16.10;99.90;;;;;;5112599;28;20507;-43
2022/08/06 00:44:47;;;;;;;3.97;1.25;;;15.00;99.90;;;;;;5112570;28;20203;-42
2022/08/06 00:47:12;;;;;;;4.10;1.50;;;15.90;99.90;;;;;;5112297;28;20168;-44
2022/08/06 00:49:38;;;;;;;3.88;1.70;;;16.00;99.90;;;;;;5112263;28;20184;-43
2022/08/06 00:52:03;;;;;;;2.47;1.55;;;15.90;99.90;;;;;;5112264;28;20175;-44
2022/08/06 00:54:29;;;;;;;1.48;1.30;;;15.80;99.90;;;;;;5112212;28;20173;-44
2022/08/06 00:56:55;;;;;;;4.05;1.38;;;15.70;99.90;;;;;;5112215;28;20168;-45
2022/08/06 00:59:20;;;;;;;3.38;1.55;;;15.50;99.90;;;;;;5112599;28;20168;-44
2022/08/06 01:01:46;;;;;;;4.88;1.48;;;15.40;99.90;;;;;;5112442;28;20531;-52
2022/08/06 01:04:11;;;;;;;4.50;1.45;;;15.50;99.90;;;;;;5112137;28;20682;-52
2022/08/06 01:06:38;;;;;;;7.13;1.60;;;15.40;99.90;;;;;;5112229;28;20238;-52
2022/08/06 01:09:04;;;;;;;1.33;1.23;;;15.40;99.90;;;;;;5112133;28;20164;-52
2022/08/06 01:11:29;;;;;;;2.15;1.23;;;15.30;99.90;;;;;;5111826;28;20215;-53
2022/08/06 01:13:55;;;;;;;1.92;1.40;;;15.30;99.90;;;;;;5112033;28;20175;-52
2022/08/06 01:16:34;;;;;;;4.43;1.58;;;15.30;99.90;;;;;;5112445;28;20165;-52
2022/08/06 01:19:06;;;;;;;2.42;1.60;;;15.30;99.90;;;;;;5112101;28;20164;-52
2022/08/06 01:21:50;;;;;;;2.42;1.63;;;15.30;99.90;;;;;;5113608;28;20225;-52
2022/08/06 01:24:19;;;;;;;2.05;1.15;;;15.20;99.90;;;;;;5116322;28;20564;-52
2022/08/06 01:26:49;;;;;;;2.67;1.05;;;15.30;99.90;;;;;;5115862;28;20243;-52
2022/08/06 01:29:24;;;;;;;3.80;1.52;;;15.30;99.90;;;;;;5115867;28;20165;-52
2022/08/06 01:32:09;;;;;;;4.28;1.60;;;15.30;99.90;;;;;;5097861;28;20509;-52
2022/08/06 01:34:42;;;;;;;2.10;1.40;;;15.20;99.90;;;;;;5097568;28;20225;-52
2022/08/06 01:37:23;;;;;;;6.97;1.80;;;15.10;99.90;;;;;;5115689;28;20168;-52
2022/08/06 01:39:53;;;;;;;4.53;1.65;;;15.10;99.90;;;;;;5116142;28;20179;-45
2022/08/06 01:42:21;;;;;;;5.63;1.63;;;15.00;99.90;;;;;;5115797;28;20168;-52
2022/08/06 01:44:49;;;;;;;3.83;1.70;;;15.10;99.90;;;;;;5115844;28;20207;-50
2022/08/06 01:47:18;;;;;;;4.10;1.63;;;15.10;99.90;;;;;;5115412;28;20528;-52
2022/08/06 01:49:50;;;;;;;5.07;1.73;;;15.00;99.90;;;;;;5115707;28;20172;-51
2022/08/06 01:52:17;;;;;;;3.42;1.55;;;15.10;99.90;;;;;;5115406;28;20161;-52
2022/08/06 01:54:45;;;;;;;5.72;1.80;;;15.00;99.90;;;;;;5115431;28;20176;-51
2022/08/06 01:57:13;;;;;;;4.05;1.77;;;15.00;99.90;;;;;;5115324;28;20161;-49
2022/08/06 01:59:55;;;;;;;4.25;1.90;;;14.90;99.90;;;;;;5115189;28;20172;-52
2022/08/06 02:02:23;;;;;;;2.05;1.30;;;14.80;99.90;;;;;;5115500;28;20692;-42
2022/08/06 02:04:53;;;;;;;1.73;1.50;;;14.80;99.90;;;;;;5115508;28;20213;-51
2022/08/06 02:07:23;;;;;;;3.22;1.70;;;14.90;99.90;;;;;;5115388;28;20203;-45
2022/08/06 02:09:50;;;;;;;5.05;1.80;;;15.00;99.90;;;;;;5115464;28;20199;-51
2022/08/06 02:12:23;;;;;;;2.40;1.65;;;15.00;99.90;;;;;;5115258;28;20251;-53
2022/08/06 02:14:55;;;;;;;4.47;1.70;;;14.90;99.90;;;;;;5115135;28;20636;-52
2022/08/06 02:17:29;;;;;;;2.00;1.58;;;14.90;99.90;;;;;;5115237;28;20670;-45
2022/08/06 02:20:00;;;;;;;5.18;1.90;;;15.00;99.90;;;;;;5115146;28;20177;-51
2022/08/06 02:22:31;;;;;;;2.75;1.42;;;15.00;99.90;;;;;;5114791;28;20639;-51
2022/08/06 02:25:04;;;;;;;2.28;1.40;;;15.00;99.90;;;;;;5114647;28;20208;-46
2022/08/06 02:27:32;;;;;;;2.70;1.40;;;15.00;99.90;;;;;;5114692;28;20165;-51
2022/08/06 02:30:00;;;;;;;4.80;1.65;;;15.00;99.90;;;;;;5114710;28;20213;-51
2022/08/06 02:32:27;;;;;;;4.47;1.80;;;15.00;99.90;;;;;;5113676;28;20195;-51
2022/08/06 02:34:53;;;;;;;3.53;1.52;;;14.90;99.90;;;;;;5114558;28;20310;-48
2022/08/06 02:37:25;;;;;;;4.82;1.52;;;14.90;99.90;;;;;;5114886;28;20620;-48
2022/08/06 02:40:01;;;;;;;2.38;1.90;;;14.90;99.90;;;;;;5114499;28;20192;-45
2022/08/06 02:42:33;;;;;;;3.42;1.88;;;15.00;99.90;;;;;;5114437;28;20160;-46
2022/08/06 02:45:11;;;;;;;8.07;2.47;;;14.90;99.90;;;;;;5114332;28;20667;-43
2022/08/06 02:47:51;;;;;;;3.97;1.42;;;14.90;99.90;;;;;;5114405;28;20634;-42
2022/08/06 02:50:21;;;;;;;9.27;1.75;;;14.80;99.90;;;;;;5114612;28;20166;-42
2022/08/06 02:52:57;;;;;;;4.05;1.52;;;14.80;99.90;;;;;;5114673;28;20165;-42
2022/08/06 02:55:28;;;;;;;1.67;1.55;;;14.80;99.90;;;;;;5114110;28;20504;-45
2022/08/06 02:58:04;;;;;;;3.45;1.45;;;14.80;99.90;;;;;;5114205;28;20191;-42
2022/08/06 03:00:31;;;;;;;2.72;1.52;;;14.80;99.90;;;;;;5114066;28;20169;-43
2022/08/06 03:03:00;;;;;;;2.85;1.75;;;14.80;99.90;;;;;;5114142;28;20165;-44
2022/08/06 03:05:27;;;;;;;4.80;1.70;;;14.80;99.90;;;;;;5113898;28;20219;-42
2022/08/06 03:07:55;;;;;;;5.90;1.50;;;14.80;99.90;;;;;;5113935;28;20663;-42
2022/08/06 03:10:24;;;;;;;4.32;1.80;;;14.70;99.90;;;;;;5113942;28;20202;-42
2022/08/06 03:12:52;;;;;;;5.95;2.00;;;14.70;99.90;;;;;;5114078;28;20759;-42
2022/08/06 03:15:19;;;;;;;4.22;1.65;;;14.70;99.90;;;;;;5114203;28;20220;-51
2022/08/06 03:17:46;;;;;;;5.03;1.80;;;14.70;99.90;;;;;;5113776;28;20700;-51
2022/08/06 03:20:18;;;;;;;4.30;1.50;;;14.70;99.90;;;;;;5113665;28;20164;-48
2022/08/06 03:22:47;;;;;;;6.53;1.90;;;14.70;99.90;;;;;;5113620;28;20255;-46
2022/08/06 03:25:14;;;;;;;6.03;2.05;;;14.60;99.90;;;;;;5113416;28;20219;-48
2022/08/06 03:27:41;;;;;;;4.82;2.15;;;14.50;99.90;;;;;;5113649;28;20619;-50
2022/08/06 03:30:08;;;;;;;2.67;1.58;;;14.60;99.90;;;;;;5113719;28;20294;-50
2022/08/06 03:32:34;;;;;;;5.82;1.58;;;14.60;99.90;;;;;;5113504;28;20238;-46
2022/08/06 03:35:02;;;;;;;3.83;2.05;;;14.60;99.90;;;;;;5113336;28;20169;-43
2022/08/06 03:37:30;;;;;;;3.22;1.52;;;14.60;99.90;;;;;;5113350;28;20169;-43
2022/08/06 03:39:59;;;;;;;2.22;1.65;;;14.50;99.90;;;;;;5113275;28;20171;-43
2022/08/06 03:42:25;;;;;;;6.65;1.80;;;14.40;99.90;;;;;;5113590;28;20256;-43
2022/08/06 03:44:50;;;;;;;3.08;1.67;;;14.50;99.90;;;;;;5112828;28;20286;-44
2022/08/06 03:47:33;;;;;;;4.10;1.90;;;14.50;99.90;;;;;;5113451;28;20179;-43
2022/08/06 03:50:04;;;;;;;2.92;2.17;;;14.50;99.90;;;;;;5113340;28;20172;-43
2022/08/06 03:52:32;;;;;;;6.57;1.77;;;14.50;99.90;;;;;;5113084;28;20175;-43
2022/08/06 03:55:03;;;;;;;7.90;1.70;;;14.60;99.90;;;;;;5113066;28;20583;-43
2022/08/06 03:57:35;;;;;;;4.68;1.95;;;14.50;99.90;;;;;;5113028;28;20169;-42
2022/08/06 04:00:03;;;;;;;4.30;1.88;;;14.50;99.90;;;;;;5112907;28;20176;-45
2022/08/06 04:02:33;;;;;;;5.95;2.25;;;14.40;99.90;;;;;;5094645;28;20172;-44
2022/08/06 04:05:00;;;;;;;4.90;1.95;;;14.40;99.90;;;;;;5112805;28;20208;-45
2022/08/06 04:07:27;;;;;;;3.35;1.90;;;14.40;99.90;;;;;;5112799;28;20190;-45
2022/08/06 04:09:53;;;;;;;4.53;2.20;;;14.40;99.90;;;;;;5112775;28;20156;-43
2022/08/06 04:12:20;;;;;;;3.72;2.20;;;12.70;99.90;;;;;;5112981;28;20697;-45
2022/08/06 04:14:46;;;;;;;8.13;2.10;;;14.40;99.90;;;;;;5113078;28;20685;-46
2022/08/06 04:17:12;;;;;;;5.10;2.10;;;14.30;99.90;;;;;;5112668;28;20251;-45
2022/08/06 04:19:39;;;;;;;3.13;1.58;;;14.50;99.90;;;;;;5112720;28;20161;-43
2022/08/06 04:22:04;;;;;;;10.27;3.72;;;14.50;99.90;;;;;;5112809;28;20192;-42
2022/08/06 04:24:30;;;;;;;3.65;1.65;;;14.40;99.90;;;;;;5112594;28;20697;-44
2022/08/06 04:27:00;;;;;;;5.93;1.80;;;14.30;99.90;;;;;;5112575;28;20161;-42
2022/08/06 04:29:27;;;;;;;5.60;2.00;;;14.30;99.90;;;;;;5112454;28;20168;-44
2022/08/06 04:31:54;;;;;;;6.70;2.60;;;14.30;99.90;;;;;;5112469;28;20165;-46
2022/08/06 04:34:24;;;;;;;4.35;1.83;;;14.20;99.90;;;;;;5112826;28;20184;-45
2022/08/06 04:36:51;;;;;;;4.47;1.73;;;14.10;99.90;;;;;;5112698;28;20196;-43
2022/08/06 04:39:17;;;;;;;5.72;1.90;;;14.20;99.90;;;;;;5112774;28;20531;-51
2022/08/06 04:41:43;;;;;;;3.50;1.63;;;14.20;99.90;;;;;;5112341;28;20251;-45
2022/08/06 04:44:10;;;;;;;5.25;2.00;;;14.30;99.90;;;;;;5112315;28;20291;-50
2022/08/06 04:46:36;;;;;;;7.55;2.20;;;14.30;99.90;;;;;;5112318;28;20157;-52
2022/08/06 04:49:03;;;;;;;8.73;2.40;;;14.20;99.90;;;;;;5112660;28;20165;-52
2022/08/06 04:51:29;;;;;;;6.35;2.00;;;14.10;99.90;;;;;;5112251;28;20168;-50
2022/08/06 04:53:54;;;;;;;4.72;2.17;;;14.10;99.90;;;;;;5112486;28;20165;-51
2022/08/06 04:56:20;;;;;;;3.90;1.90;;;14.20;99.90;;;;;;5113763;28;20646;-49
2022/08/06 04:58:46;;;;;;;4.30;2.10;;;14.10;99.90;;;;;;5116822;28;20161;-51
2022/08/06 05:01:11;;;;;;;5.60;2.20;;;14.20;99.90;;;;;;5116435;28;20164;-51
2022/08/06 05:03:37;;;;;;;5.35;1.90;;;14.20;99.90;;;;;;5116274;28;20172;-49
2022/08/06 05:06:12;;;;;;;10.35;2.40;;;14.40;99.90;;;;;;5116235;28;20172;-50
2022/08/06 05:08:41;;;;;;;4.47;2.10;;;14.40;99.90;;;;;;5115945;28;20163;-51
2022/08/06 05:11:26;;;;;;;5.22;2.30;;;14.40;99.90;;;;;;5116440;28;20191;-51
2022/08/06 05:14:00;;;;;;;3.90;2.10;;;14.40;99.90;;;;;;5116165;28;20193;-42
2022/08/06 05:16:27;;;;;;;3.50;2.17;;;14.40;99.90;;;;;;5116045;28;20207;-42
2022/08/06 05:19:02;;;;;;;3.85;2.03;;;14.50;99.90;;;;;;5116009;28;20173;-43
2022/08/06 05:21:32;;;;;;;2.63;1.70;;;14.70;99.90;;;;;;5116265;28;20193;-47
2022/08/06 05:23:59;;;;;;;4.30;2.00;;;14.90;99.90;;;;;;5115962;28;20204;-43
2022/08/06 05:26:25;;;;;;;7.93;2.33;;;14.90;99.90;;;;;;5115914;28;20245;-44
2022/08/06 05:28:51;;;;;;;5.10;2.22;;;15.00;99.90;;;;;;5116041;28;20669;-42
2022/08/06 05:31:29;;;;;;;4.43;1.98;;;15.20;99.90;;;;;;5116468;28;20168;-43
2022/08/06 05:33:55;;;;;;;6.78;2.40;;;15.20;99.90;;;;;;5116009;28;20255;-43
2022/08/06 05:36:20;;;;;;;4.70;2.00;;;15.40;99.90;;;;;;5115950;28;20256;-43
2022/08/06 05:38:46;;;;;;;4.43;2.10;;;15.30;99.90;;;;;;5115977;28;20167;-42
2022/08/06 05:41:12;;;;;;;4.72;2.78;;;15.10;99.90;;;;;;5115424;28;20217;-43
2022/08/06 05:43:39;;;;;;;4.65;2.40;;;15.10;99.90;;;;;;5115513;28;20234;-43
2022/08/06 05:46:09;;;;;;;6.28;2.38;;;15.20;99.90;;;;;;5115648;28;20574;-44
2022/08/06 05:48:43;;;;;;;5.45;2.47;;;15.20;99.90;;;;;;5115510;28;20164;-43
2022/08/06 05:51:29;;;;;;;4.38;2.85;;;15.60;99.90;;;;;;5115513;28;20161;-42
2022/08/06 05:54:02;;;;;;;4.97;2.40;;;15.70;99.90;;;;;;5115445;28;20164;-44
2022/08/06 05:56:35;;;;;;;4.30;2.17;;;15.80;99.90;;;;;;5115274;28;20627;-49
2022/08/06 05:59:05;;;;;;;4.95;2.45;;;15.80;99.90;;;;;;5115276;28;20164;-44
2022/08/06 06:01:32;;;;;;;6.30;2.63;;;15.90;99.90;;;;;;5115297;28;20161;-44
2022/08/06 06:03:58;;;;;;;4.72;2.58;;;15.90;99.90;;;;;;5115110;28;20662;-46
2022/08/06 06:06:25;;;;;;;4.20;2.40;;;16.10;99.90;;;;;;5115164;28;20173;-42
2022/08/06 06:08:50;;;;;;;9.63;2.50;;;16.20;99.90;;;;;;5115033;28;20164;-42
2022/08/06 06:11:17;;;;;;;6.20;2.45;;;16.30;99.90;;;;;;5115421;28;20165;-42
2022/08/06 06:13:43;;;;;;;6.50;2.53;;;16.30;99.90;;;;;;5114950;28;20201;-45
2022/08/06 06:16:29;;;;;;;4.88;3.55;;;16.40;99.90;;;;;;5115238;28;20168;-43
2022/08/06 06:19:08;;;;;;;5.35;2.67;;;16.50;99.90;;;;;;5115162;28;20223;-44
2022/08/06 06:21:52;;;;;;;6.82;2.35;;;16.70;99.90;;;;;;5114906;28;20189;-49
2022/08/06 06:24:32;;;;;;;5.55;2.40;;;16.70;99.90;;;;;;5115394;28;20203;-48
2022/08/06 06:27:04;;;;;;;5.32;2.22;;;16.80;99.90;;;;;;5114740;28;20739;-46
2022/08/06 06:29:44;;;;;;;2.05;1.85;;;16.90;99.90;;;;;;5114713;28;20625;-46
2022/08/06 06:32:46;;;;;;;4.35;2.40;;;17.00;99.90;;;;;;5114703;28;20166;-42
2022/08/06 06:35:15;;;;;;;3.20;2.33;;;17.00;99.90;;;;;;5115005;28;20168;-44
2022/08/06 06:37:57;;;;;;;8.23;2.72;;;17.00;99.90;;;;;;5114339;28;20169;-41
2022/08/06 06:40:42;;;;;;;5.47;2.60;;;17.00;99.90;;;;;;5114227;28;20164;-44
2022/08/06 06:43:21;;;;;;;4.05;2.17;;;17.20;99.90;;;;;;5114701;28;20225;-45
2022/08/06 06:45:56;;;;;;;5.50;2.40;;;17.30;99.90;;;;;;5114457;28;20203;-46
2022/08/06 06:48:46;;;;;;;5.15;2.78;;;17.40;99.90;;;;;;5114441;28;20195;-44
2022/08/06 06:51:20;;;;;;;7.93;3.13;;;17.40;99.90;;;;;;5113703;28;20529;-46
2022/08/06 06:53:48;;;;;;;9.73;3.80;;;17.60;99.90;;;;;;5114518;28;20692;-49
2022/08/06 06:56:18;;;;;;;8.43;3.95;;;17.70;99.90;;;;;;5114564;28;20161;-50
2022/08/06 06:58:52;;;;;;;7.15;3.50;;;17.80;99.90;;;;;;5114594;28;20684;-48
2022/08/06 07:01:18;;;;;;;7.22;3.70;;;17.90;99.90;;;;;;5114479;28;20165;-45
2022/08/06 07:03:46;;;;;;;12.38;3.65;;;18.20;99.90;;;;;;5114450;28;20672;-44
2022/08/06 07:06:12;;;;;;;7.95;3.83;;;18.00;99.90;;;;;;5113894;28;20662;-42
2022/08/06 07:08:44;;;;;;;5.47;2.95;;;18.10;99.90;;;;;;5113971;28;20320;-45
2022/08/06 07:11:14;;;;;;;9.57;3.40;;;18.30;99.90;;;;;;5113912;28;20177;-43
2022/08/06 07:13:42;;;;;;;5.60;3.00;;;18.50;99.90;;;;;;5113702;28;20212;-43
2022/08/06 07:16:10;;;;;;;8.77;3.13;;;18.60;99.90;;;;;;5113796;28;20198;-44
2022/08/06 07:18:36;;;;;;;5.88;3.10;;;18.60;99.90;;;;;;5113134;28;20163;-44
2022/08/06 07:21:03;;;;;;;6.22;3.15;;;18.60;99.90;;;;;;5113712;28;20540;-45
2022/08/06 07:23:29;;;;;;;5.85;3.30;;;18.70;99.90;;;;;;5113620;28;20164;-45
2022/08/06 07:25:56;;;;;;;8.60;2.70;;;18.70;99.90;;;;;;5113461;28;20623;-42
2022/08/06 07:28:26;;;;;;;5.25;2.50;;;18.80;99.90;;;;;;5113815;28;20173;-43
2022/08/06 07:30:53;;;;;;;7.60;2.25;;;18.70;99.90;;;;;;5113598;28;20666;-43
2022/08/06 07:33:19;;;;;;;6.65;2.42;;;18.80;99.90;;;;;;5113513;28;20165;-41
2022/08/06 07:35:47;;;;;;;3.58;2.50;;;18.90;99.90;;;;;;5113806;28;20655;-41
2022/08/06 07:38:15;;;;;;;8.48;3.13;;;19.00;99.90;;;;;;5113591;28;20176;-42
2022/08/06 07:40:46;;;;;;;3.65;2.22;;;19.00;99.90;;;;;;5113324;28;20612;-45
2022/08/06 07:43:28;;;;;;;6.60;2.28;;;19.10;99.90;;;;;;5113332;28;20173;-42
2022/08/06 07:45:57;;;;;;;5.35;2.25;;;19.00;99.90;;;;;;5113257;28;20176;-42
2022/08/06 07:48:28;;;;;;;4.63;2.42;;;19.10;99.90;;;;;;5112970;28;20572;-42
2022/08/06 07:50:55;;;;;;;5.78;1.55;;;19.30;99.90;;;;;;5094761;28;20659;-44
2022/08/06 07:53:21;;;;;;;3.58;1.80;;;19.30;99.90;;;;;;5112766;28;20169;-41
2022/08/06 07:55:47;;;;;;;3.35;1.90;;;19.40;99.90;;;;;;5095146;28;20692;-42
2022/08/06 07:58:14;;;;;;;4.68;1.70;;;19.50;99.90;;;;;;5112668;28;20164;-41
2022/08/06 08:00:40;;;;;;;3.05;1.88;;;19.70;99.90;;;;;;5111097;28;20184;-41
2022/08/06 08:08:39;;;;;;;3.55;1.40;;;19.60;99.90;;;;;;5131807;27;20217;-47
2022/08/06 08:11:06;;;;;;;3.00;1.55;;;19.60;99.90;;;;;;5131273;27;20211;-43
2022/08/06 08:13:33;;;;;;;5.82;1.90;;;19.60;99.90;;;;;;5131360;27;20211;-46
2022/08/06 08:15:59;;;;;;;4.20;1.85;;;19.60;99.90;;;;;;5131543;27;20250;-47
2022/08/06 08:18:30;;;;;;;2.88;1.45;;;19.80;99.90;;;;;;5131921;27;20216;-43
2022/08/06 08:20:57;;;;;;;2.70;1.23;;;19.60;99.90;;;;;;5131788;27;20527;-43
2022/08/06 08:23:24;;;;;;;4.53;1.50;;;19.70;99.90;;;;;;5131960;27;20168;-46
2022/08/06 08:25:50;;;;;;;3.08;1.85;;;20.00;99.90;;;;;;5131626;27;20215;-44
2022/08/06 08:28:15;;;;;;;5.18;1.90;;;20.30;99.90;;;;;;5132335;27;20175;-47
2022/08/06 08:30:42;;;;;;;5.30;1.67;;;20.40;99.90;;;;;;5130703;27;20251;-43
2022/08/06 08:33:09;;;;;;;1.98;1.00;;;20.40;99.90;;;;;;5131481;27;20255;-43
2022/08/06 08:35:35;;;;;;;3.28;1.17;;;20.40;99.90;;;;;;5130744;27;20161;-50
2022/08/06 08:38:00;;;;;;;1.42;1.10;;;20.50;99.90;;;;;;5131437;27;20213;-46
2022/08/06 08:40:28;;;;;;;3.22;1.45;;;20.60;99.90;;;;;;5131210;27;20176;-44
2022/08/06 08:42:57;;;;;;;1.52;0.85;;;20.70;99.90;;;;;;5131601;27;20164;-48
2022/08/06 08:45:24;;;;;;;1.15;1.05;;;20.60;99.90;;;;;;5131234;27;20691;-52
2022/08/06 08:47:51;;;;;;;2.92;1.70;;;20.50;99.90;;;;;;5131505;28;20168;-47
2022/08/06 08:50:22;;;;;;;3.95;2.00;;;20.70;99.90;;;;;;5131605;28;20566;-48
2022/08/06 08:52:50;;;;;;;2.00;1.33;;;20.70;99.90;;;;;;5131605;28;20653;-42
2022/08/06 08:55:21;;;;;;;3.10;1.10;;;20.90;99.90;;;;;;5131671;28;20168;-51
2022/08/06 08:57:48;;;;;;;1.77;1.25;;;21.10;99.90;;;;;;5131618;28;20164;-42
2022/08/06 09:00:13;;;;;;;4.40;1.40;;;21.40;99.90;;;;;;5131987;28;20172;-42
2022/08/06 09:02:41;;;;;;;1.30;1.00;;;21.50;99.90;;;;;;5130497;28;20168;-44
2022/08/06 09:05:07;;;;;;;1.77;1.00;;;21.50;99.90;;;;;;5110568;28;20211;-55
2022/08/06 09:07:33;;;;;;;2.58;1.10;;;21.70;99.90;;;;;;5110771;28;20165;-44
2022/08/06 09:09:59;;;;;;;1.92;1.00;;;21.60;99.90;;;;;;5110829;28;20222;-45
2022/08/06 09:12:25;;;;;;;2.20;1.17;;;21.50;99.90;;;;;;5110536;28;20209;-41
2022/08/06 09:14:51;;;;;;;1.33;1.00;;;21.40;99.90;;;;;;5110685;28;20177;-42
2022/08/06 09:17:17;;;;;;;0.82;0.80;;;21.90;99.90;;;;;;5110951;28;20172;-42
2022/08/06 09:19:43;;;;;;;1.48;0.70;;;22.10;99.90;;;;;;5110649;28;20175;-45
2022/08/06 09:22:10;;;;;;;2.78;0.93;;;22.10;99.90;;;;;;5110493;28;20502;-42
2022/08/06 09:24:36;;;;;;;2.53;1.00;;;22.00;99.90;;;;;;5110385;28;20215;-45
2022/08/06 09:27:11;;;;;;;2.50;0.95;;;22.10;99.90;;;;;;5110606;28;20244;-41
2022/08/06 09:29:47;;;;;;;1.88;0.90;;;22.30;99.90;;;;;;5110646;28;20175;-51
2022/08/06 09:32:12;;;;;;;2.67;0.90;;;22.50;99.90;;;;;;5110446;28;20662;-45
2022/08/06 09:34:39;;;;;;;1.83;1.00;;;22.50;99.90;;;;;;5110427;28;20169;-54
2022/08/06 09:37:05;;;;;;;1.10;0.95;;;21.70;99.90;;;;;;5110116;28;20169;-42
2022/08/06 09:39:40;;;;;;;2.03;0.90;;;22.00;99.90;;;;;;5109464;28;20732;-47
2022/08/06 09:42:07;;;;;;;1.23;0.80;;;22.20;99.90;;;;;;5111514;28;20179;-42
2022/08/06 09:44:33;;;;;;;1.38;0.93;;;21.90;99.90;;;;;;5113932;28;20237;-44
2022/08/06 09:47:00;;;;;;;2.28;1.10;;;21.80;99.90;;;;;;5114001;28;20171;-50
2022/08/06 09:49:26;;;;;;;1.23;0.73;;;21.80;99.90;;;;;;5114113;28;20248;-50
2022/08/06 09:52:18;;;;;;;1.33;1.00;;;21.70;99.90;;;;;;5114278;28;20264;-41
2022/08/06 09:54:46;;;;;;;0.60;0.60;;;22.20;99.90;;;;;;5114044;28;20169;-47
2022/08/06 09:57:12;;;;;;;2.80;0.95;;;21.50;99.90;;;;;;5113911;28;20274;-44
2022/08/06 09:59:46;;;;;;;0.80;0.80;;;21.40;99.90;;;;;;5114014;28;20178;-46
2022/08/06 10:02:14;;;;;;;2.28;0.75;;;21.70;99.90;;;;;;5114878;28;20160;-42
2022/08/06 10:04:40;;;;;;;2.10;0.73;;;22.20;99.90;;;;;;5115308;28;20291;-47
2022/08/06 10:07:06;;;;;;;1.73;0.95;;;22.50;99.90;;;;;;5114560;28;20712;-46
2022/08/06 10:09:33;;;;;;;1.45;0.95;;;22.90;99.90;;;;;;5115034;28;20165;-41
2022/08/06 10:11:58;;;;;;;0.65;0.60;;;22.80;99.90;;;;;;5114334;28;20234;-44
2022/08/06 10:14:32;;;;;;;1.10;0.70;;;23.00;99.90;;;;;;5114899;28;20610;-44
2022/08/06 10:17:11;;;;;;;0.70;0.70;;;21.50;99.90;;;;;;5114791;28;20628;-44
2022/08/06 10:19:39;;;;;;;2.15;0.90;;;23.30;99.90;;;;;;5114900;28;20206;-47
2022/08/06 10:22:13;;;;;;;2.15;0.98;;;23.10;99.90;;;;;;5114922;28;20171;-45
2022/08/06 10:24:48;;;;;;;1.42;0.75;;;23.10;99.90;;;;;;5114312;28;20192;-43
2022/08/06 10:27:18;;;;;;;0.75;0.73;;;23.10;99.90;;;;;;5114558;28;20172;-43
2022/08/06 10:29:49;;;;;;;1.08;0.70;;;23.20;99.90;;;;;;5129988;27;20217;-42
2022/08/06 10:32:22;;;;;;;4.82;1.00;;;23.10;99.90;;;;;;5134957;27;20168;-43
2022/08/06 10:34:50;;;;;;;1.45;0.82;;;22.80;99.90;;;;;;5134740;27;20160;-42
2022/08/06 10:37:18;;;;;;;1.02;0.88;;;22.50;99.90;;;;;;5128604;27;20168;-46
2022/08/06 10:40:06;;;;;;;0.63;0.63;;;22.60;99.90;;;;;;5114647;28;20153;-45
2022/08/06 10:42:34;;;;;;;1.23;0.65;;;23.00;99.90;;;;;;5114376;28;20183;-41
2022/08/06 10:45:04;;;;;;;1.08;0.85;;;23.20;99.90;;;;;;5113787;28;20196;-52
2022/08/06 10:47:41;;;;;;;1.08;0.52;;;23.40;99.20;;;;;;5112999;28;20247;-43
2022/08/06 10:50:23;;;;;;;1.10;0.80;;;23.10;95.70;;;;;;5113855;28;20176;-43
2022/08/06 10:53:16;;;;;;;0.77;0.70;;;23.40;96.70;;;;;;5111967;28;20165;-52
2022/08/06 10:55:46;;;;;;;2.35;1.05;;;23.40;96.90;;;;;;5113906;28;20161;-46
2022/08/06 10:58:31;;;;;;;1.27;0.80;;;23.30;95.50;;;;;;5110083;28;20183;-44
2022/08/06 11:01:46;;;;;;;0.68;0.60;;;23.10;95.60;;;;;;5113843;28;20624;-52
2022/08/06 11:04:58;;;;;;;3.53;1.08;;;23.20;96.40;;;;;;5112395;28;20208;-40
2022/08/06 11:07:24;;;;;;;0.60;0.60;;;23.40;96.80;;;;;;5113466;28;20173;-53
2022/08/06 11:10:33;;;;;;;1.35;0.77;;;23.20;96.20;;;;;;5113804;28;20580;-52
2022/08/06 11:13:17;;;;;;;0.75;0.65;;;23.60;97.50;;;;;;5112289;28;20711;-52
2022/08/06 11:15:51;;;;;;;0.75;0.50;;;24.00;93.70;;;;;;5113991;28;20200;-54
2022/08/06 11:18:46;;;;;;;0.45;0.45;;;23.90;92.20;;;;;;5113742;28;20192;-44
2022/08/06 11:21:36;;;;;;;1.55;0.60;;;23.60;92.10;;;;;;5097466;28;20198;-41
2022/08/06 11:24:03;;;;;;;1.98;0.60;;;24.10;92.90;;;;;;5113569;28;20523;-41
2022/08/06 11:26:43;;;;;;;1.33;0.70;;;23.90;90.90;;;;;;5113402;28;20233;-47
2022/08/06 11:29:13;;;;;;;1.73;0.88;;;23.80;92.50;;;;;;5113247;28;20594;-44
2022/08/06 11:31:49;;;;;;;1.45;0.65;;;24.00;91.70;;;;;;5095032;28;20165;-41
2022/08/06 11:34:21;;;;;;;1.08;0.65;;;24.50;90.90;;;;;;5113441;28;20774;-46
2022/08/06 11:36:54;;;;;;;1.00;0.82;;;24.60;91.20;;;;;;5112110;28;20628;-42
2022/08/06 11:39:27;;;;;;;0.30;0.30;;;24.50;89.70;;;;;;5111690;28;20259;-40
2022/08/06 11:42:03;;;;;;;0.60;0.60;;;24.50;90.10;;;;;;5111636;28;20168;-41
2022/08/06 11:44:58;;;;;;;1.88;0.75;;;24.70;88.60;;;;;;5111359;28;20207;-41
2022/08/06 11:47:26;;;;;;;0.65;0.65;;;24.90;90.00;;;;;;5092749;28;20165;-46
2022/08/06 11:49:51;;;;;;;1.25;0.75;;;24.70;89.60;;;;;;5092870;28;20245;-42
2022/08/06 11:52:37;;;;;;;0.80;0.80;;;24.80;91.00;;;;;;5111787;28;20168;-50
2022/08/06 11:55:06;;;;;;;1.42;1.00;;;24.70;90.50;;;;;;5113047;28;20199;-41
2022/08/06 11:57:41;;;;;;;1.48;0.80;;;24.80;89.00;;;;;;5109065;28;20194;-41
2022/08/06 12:00:14;;;;;;;1.23;0.70;;;24.70;89.60;;;;;;5112877;28;20164;-41
2022/08/06 12:02:51;;;;;;;1.73;0.88;;;24.90;89.10;;;;;;5112856;28;20156;-42
2022/08/06 12:05:33;;;;;;;1.08;0.90;;;25.20;86.80;;;;;;5112725;28;20208;-41
2022/08/06 12:08:20;;;;;;;2.95;0.70;;;25.20;84.20;;;;;;5112647;28;20163;-41
2022/08/06 12:11:27;;;;;;;0.80;0.80;;;25.50;84.30;;;;;;5113075;28;20560;-41
2022/08/06 12:13:53;;;;;;;2.58;1.00;;;25.60;85.30;;;;;;5112472;28;20184;-51
2022/08/06 12:16:33;;;;;;;2.50;0.73;;;25.20;84.20;;;;;;5112636;28;20263;-53
2022/08/06 12:19:01;;;;;;;0.73;0.73;;;24.40;85.30;;;;;;5112429;28;20724;-53
2022/08/06 12:21:28;;;;;;;1.90;0.65;;;24.60;86.80;;;;;;5112645;28;20176;-48
2022/08/06 12:23:54;;;;;;;1.30;0.90;;;24.60;86.00;;;;;;5112116;28;20168;-43
2022/08/06 12:26:21;;;;;;;1.67;0.77;;;25.10;87.60;;;;;;5112289;28;20172;-53
2022/08/06 12:28:47;;;;;;;0.70;0.70;;;24.30;85.40;;;;;;5112053;28;20204;-45
2022/08/06 12:31:13;;;;;;;4.18;0.82;;;23.90;85.20;;;;;;5112526;28;20251;-43
2022/08/06 12:33:43;;;;;;;4.10;0.80;;;23.90;87.40;;;;;;5112340;28;20171;-41
2022/08/06 12:36:08;;;;;;;2.30;0.90;;;23.80;88.00;;;;;;5111724;28;20659;-43
2022/08/06 12:38:36;;;;;;;1.90;0.80;;;23.70;85.00;;;;;;5111848;28;20247;-53
2022/08/06 12:41:04;;;;;;;0.75;0.65;;;24.50;84.20;;;;;;5112090;28;20188;-43
2022/08/06 12:43:31;;;;;;;0.70;0.70;;;25.00;83.80;;;;;;5111756;28;20167;-45
2022/08/06 12:46:06;;;;;;;1.10;1.00;;;25.30;81.90;;;;;;5111644;28;20273;-45
2022/08/06 12:48:34;;;;;;;3.03;0.88;;;25.10;81.30;;;;;;5111890;28;20204;-52
2022/08/06 12:51:04;;;;;;;1.08;0.70;;;25.20;79.80;;;;;;5111821;28;20167;-50
2022/08/06 12:53:30;;;;;;;2.00;0.68;;;25.00;78.30;;;;;;5111507;28;20206;-48
2022/08/06 12:55:56;;;;;;;1.60;0.90;;;25.20;79.80;;;;;;5111984;28;20164;-44
2022/08/06 12:58:35;;;;;;;1.88;1.05;;;25.50;79.70;;;;;;5111837;28;20249;-51
2022/08/06 13:01:06;;;;;;;0.55;0.55;;;25.30;79.90;;;;;;5111839;28;20164;-45
2022/08/06 13:03:35;;;;;;;3.28;0.70;;;25.10;77.40;;;;;;5111737;28;20166;-49
2022/08/06 13:06:03;;;;;;;0.73;0.65;;;25.10;78.60;;;;;;5111374;28;20203;-52
2022/08/06 13:08:30;;;;;;;1.23;1.02;;;25.60;79.40;;;;;;5111753;28;20160;-47